Time;durP1;ratioP1;P1;durP2;ratioP2;P2;SDS_P1;SDS_P2;PMS_P1;PMS_P2;Temp;Humidity;BMP_temperature;BMP_pressure;BME280_temperature;BME280_humidity;BME280_pressure;Samples;Min_cycle;Max_cycle;Signal;HPM_P1;HPM_P2
2023/06/26 00:00:28;;;;;;;0.32;0.32;;;17.20;99.90;;;;;;4992670;28;20655;-71
2023/06/26 00:02:54;;;;;;;0.52;0.52;;;17.10;99.90;;;;;;4992758;28;20247;-70
2023/06/26 00:05:20;;;;;;;0.30;0.30;;;17.10;99.90;;;;;;4992503;28;20823;-71
2023/06/26 00:07:45;;;;;;;0.43;0.43;;;17.00;99.90;;;;;;4975599;28;20195;-69
2023/06/26 00:10:11;;;;;;;0.50;0.50;;;17.00;99.90;;;;;;4992688;28;20196;-69
2023/06/26 00:12:37;;;;;;;2.13;0.65;;;17.00;99.90;;;;;;4992582;28;20227;-70
2023/06/26 00:15:03;;;;;;;0.85;0.60;;;17.10;99.90;;;;;;4998122;28;20199;-71
2023/06/26 00:17:29;;;;;;;0.40;0.40;;;17.10;99.90;;;;;;5011404;28;20354;-71
2023/06/26 00:19:54;;;;;;;0.30;0.30;;;17.10;99.90;;;;;;4975133;28;20639;-71
2023/06/26 00:22:21;;;;;;;0.60;0.60;;;17.10;99.90;;;;;;4992106;28;20278;-70
2023/06/26 00:24:47;;;;;;;0.40;0.40;;;17.10;99.90;;;;;;4992380;28;20214;-70
2023/06/26 00:27:12;;;;;;;0.40;0.40;;;17.10;99.90;;;;;;4992173;28;20195;-73
2023/06/26 00:29:38;;;;;;;0.50;0.50;;;17.00;99.90;;;;;;4974537;28;20206;-71
2023/06/26 00:32:05;;;;;;;0.50;0.50;;;16.70;99.90;;;;;;4992100;28;20183;-70
2023/06/26 00:34:30;;;;;;;0.35;0.35;;;16.50;99.90;;;;;;5002925;28;20234;-71
2023/06/26 00:36:56;;;;;;;0.35;0.35;;;16.60;99.90;;;;;;5011613;28;20245;-71
2023/06/26 00:39:25;;;;;;;0.60;0.60;;;16.60;99.90;;;;;;5012891;28;20194;-71
2023/06/26 00:41:53;;;;;;;0.30;0.30;;;16.70;99.90;;;;;;5011922;28;20546;-70
2023/06/26 00:44:19;;;;;;;0.52;0.52;;;16.80;99.90;;;;;;5007458;28;20215;-71
2023/06/26 00:46:45;;;;;;;1.13;0.73;;;16.80;99.90;;;;;;4992734;28;20702;-71
2023/06/26 00:49:12;;;;;;;3.65;1.38;;;16.80;99.90;;;;;;4974582;28;20204;-72
2023/06/26 00:54:55;;;;;;;0.38;0.38;;;16.60;99.90;;;;;;4971507;28;20269;-73
2023/06/26 00:57:21;;;;;;;0.70;0.70;;;16.60;99.90;;;;;;4992123;28;20199;-70
2023/06/26 01:00:32;;;;;;;0.32;0.32;;;16.60;99.90;;;;;;4992338;28;20195;-72
2023/06/26 01:02:58;;;;;;;0.43;0.43;;;16.60;99.90;;;;;;4938403;28;20211;-65
2023/06/26 01:05:26;;;;;;;3.20;0.68;;;16.60;99.90;;;;;;5018827;23;20606;-68
2023/06/26 01:07:53;;;;;;;0.52;0.50;;;16.70;99.90;;;;;;5010728;28;20202;-68
2023/06/26 01:10:19;;;;;;;0.50;0.50;;;16.70;99.90;;;;;;5010467;28;20340;-68
2023/06/26 01:12:45;;;;;;;0.73;0.73;;;16.70;99.90;;;;;;4993226;28;20199;-68
2023/06/26 01:15:11;;;;;;;0.30;0.30;;;16.70;99.90;;;;;;4990872;28;20199;-67
2023/06/26 01:17:38;;;;;;;0.40;0.40;;;16.70;99.90;;;;;;4990820;28;20681;-68
2023/06/26 01:20:09;;;;;;;0.50;0.50;;;16.70;99.90;;;;;;4991044;28;20843;-68
2023/06/26 01:22:50;;;;;;;1.38;1.00;;;16.70;99.90;;;;;;4990789;28;20191;-68
2023/06/26 01:25:20;;;;;;;1.00;0.80;;;16.70;99.90;;;;;;4991131;28;20262;-68
2023/06/26 01:27:50;;;;;;;0.90;0.70;;;16.60;99.90;;;;;;4992785;28;20191;-68
2023/06/26 01:30:17;;;;;;;0.40;0.40;;;16.60;99.90;;;;;;4994657;28;20191;-68
2023/06/26 01:32:44;;;;;;;1.08;0.95;;;16.60;99.90;;;;;;4994686;28;20191;-68
2023/06/26 01:35:12;;;;;;;0.32;0.32;;;16.60;99.90;;;;;;4994806;28;20278;-69
2023/06/26 01:37:37;;;;;;;0.60;0.60;;;16.50;99.90;;;;;;5005410;28;20968;-69
2023/06/26 01:40:07;;;;;;;1.73;1.02;;;16.50;99.90;;;;;;5014132;28;20307;-68
2023/06/26 01:42:33;;;;;;;0.52;0.50;;;16.40;99.90;;;;;;4994594;28;20685;-68
2023/06/26 01:45:04;;;;;;;2.40;0.77;;;16.40;99.90;;;;;;4994639;28;20688;-67
2023/06/26 01:47:32;;;;;;;0.40;0.40;;;16.40;99.90;;;;;;4994583;28;20194;-68
2023/06/26 01:50:09;;;;;;;0.28;0.28;;;16.40;99.90;;;;;;4994593;28;20194;-68
2023/06/26 01:53:07;;;;;;;0.43;0.43;;;16.30;99.90;;;;;;4976886;28;20210;-68
2023/06/26 01:55:47;;;;;;;0.30;0.30;;;16.00;99.90;;;;;;4993611;28;20215;-68
2023/06/26 01:58:16;;;;;;;0.55;0.55;;;15.80;99.90;;;;;;4994472;28;20187;-67
2023/06/26 02:00:42;;;;;;;1.55;0.50;;;15.80;99.90;;;;;;4993586;28;20199;-68
2023/06/26 02:03:09;;;;;;;0.35;0.35;;;15.90;99.90;;;;;;4985923;28;20239;-68
2023/06/26 02:05:34;;;;;;;2.22;0.60;;;16.10;99.90;;;;;;5014154;28;20636;-69
2023/06/26 02:08:04;;;;;;;0.88;0.88;;;16.10;99.90;;;;;;4996691;28;20684;-68
2023/06/26 02:10:30;;;;;;;0.95;0.85;;;16.20;99.90;;;;;;5014455;28;20191;-68
2023/06/26 02:12:56;;;;;;;0.40;0.40;;;16.30;99.90;;;;;;5014512;28;20206;-68
2023/06/26 02:15:22;;;;;;;0.50;0.50;;;16.30;99.90;;;;;;5014032;28;20211;-68
2023/06/26 02:17:48;;;;;;;0.55;0.55;;;16.30;99.90;;;;;;5014554;28;20658;-68
2023/06/26 02:20:15;;;;;;;0.47;0.47;;;16.40;99.90;;;;;;5014536;28;20598;-68
2023/06/26 02:22:42;;;;;;;0.30;0.30;;;16.20;99.90;;;;;;5013953;28;20202;-66
2023/06/26 02:25:08;;;;;;;0.57;0.57;;;16.20;99.90;;;;;;5013409;28;20590;-66
2023/06/26 02:27:34;;;;;;;0.50;0.50;;;16.20;99.90;;;;;;5014256;28;20195;-67
2023/06/26 02:30:00;;;;;;;0.30;0.30;;;16.30;99.90;;;;;;5014249;28;20598;-66
2023/06/26 02:32:25;;;;;;;0.95;0.65;;;16.40;99.90;;;;;;5013878;28;20245;-67
2023/06/26 02:34:51;;;;;;;0.28;0.28;;;16.50;99.90;;;;;;5014096;28;20261;-67
2023/06/26 02:37:18;;;;;;;0.57;0.40;;;16.60;99.90;;;;;;5021743;28;20206;-67
2023/06/26 02:39:43;;;;;;;0.73;0.50;;;16.60;99.90;;;;;;5032836;28;20922;-67
2023/06/26 02:42:09;;;;;;;0.50;0.50;;;16.60;99.90;;;;;;5016309;28;20689;-68
2023/06/26 02:44:35;;;;;;;0.57;0.57;;;16.60;99.90;;;;;;5013546;28;20203;-68
2023/06/26 02:47:01;;;;;;;0.75;0.73;;;16.70;99.90;;;;;;5013942;28;20662;-67
2023/06/26 02:49:26;;;;;;;0.38;0.38;;;16.70;99.90;;;;;;5013624;28;20199;-68
2023/06/26 02:51:52;;;;;;;0.45;0.45;;;16.80;99.90;;;;;;5014022;28;20198;-68
2023/06/26 02:54:18;;;;;;;0.68;0.68;;;16.90;99.90;;;;;;4995634;28;20203;-67
2023/06/26 02:56:44;;;;;;;0.50;0.50;;;16.90;99.90;;;;;;5013945;28;20195;-67
2023/06/26 02:59:09;;;;;;;1.77;0.77;;;16.90;99.90;;;;;;5013419;28;20206;-68
2023/06/26 03:01:35;;;;;;;0.70;0.70;;;17.00;99.90;;;;;;5012490;28;20199;-68
2023/06/26 03:04:01;;;;;;;0.50;0.50;;;17.00;99.90;;;;;;5011979;28;20669;-68
2023/06/26 03:06:27;;;;;;;0.38;0.38;;;17.00;99.90;;;;;;5013122;28;20203;-68
2023/06/26 03:08:53;;;;;;;0.65;0.65;;;17.00;99.90;;;;;;5013280;28;20565;-68
2023/06/26 03:11:19;;;;;;;0.80;0.77;;;17.10;99.90;;;;;;5012867;28;20733;-67
2023/06/26 03:13:45;;;;;;;0.30;0.30;;;17.20;99.90;;;;;;5013247;28;20330;-68
2023/06/26 03:16:11;;;;;;;0.57;0.57;;;17.20;99.90;;;;;;4995681;28;20574;-68
2023/06/26 03:18:37;;;;;;;0.55;0.50;;;17.30;99.90;;;;;;5013756;28;20199;-67
2023/06/26 03:21:03;;;;;;;0.35;0.35;;;17.30;99.90;;;;;;5013387;28;20201;-68
2023/06/26 03:23:29;;;;;;;0.93;0.90;;;17.40;99.90;;;;;;4995160;28;20202;-67
2023/06/26 03:25:55;;;;;;;1.70;0.50;;;17.40;99.90;;;;;;5012889;28;20398;-67
2023/06/26 03:28:21;;;;;;;0.65;0.50;;;17.50;99.90;;;;;;5012958;28;20290;-67
2023/06/26 03:30:46;;;;;;;0.40;0.40;;;17.40;99.90;;;;;;5011745;28;20210;-67
2023/06/26 03:33:12;;;;;;;1.25;0.70;;;17.50;99.90;;;;;;5012664;28;20194;-67
2023/06/26 03:35:38;;;;;;;0.30;0.30;;;17.50;99.90;;;;;;5012806;28;20210;-67
2023/06/26 03:38:05;;;;;;;0.75;0.75;;;17.50;99.90;;;;;;5027054;28;20197;-67
2023/06/26 03:40:30;;;;;;;0.93;0.90;;;17.30;99.90;;;;;;5028485;28;20190;-67
2023/06/26 03:42:56;;;;;;;0.77;0.77;;;17.30;99.90;;;;;;5012179;28;20191;-67
2023/06/26 03:45:22;;;;;;;0.32;0.32;;;17.20;99.90;;;;;;5012374;28;20202;-67
2023/06/26 03:47:49;;;;;;;0.47;0.47;;;17.20;99.90;;;;;;5012569;28;20270;-67
2023/06/26 03:50:18;;;;;;;1.10;1.00;;;17.30;99.90;;;;;;5012097;28;20230;-67
2023/06/26 03:52:44;;;;;;;0.75;0.45;;;17.40;99.90;;;;;;5012131;28;20191;-67
2023/06/26 03:55:10;;;;;;;2.53;0.95;;;17.50;99.90;;;;;;5012343;28;20281;-67
2023/06/26 03:57:36;;;;;;;0.75;0.75;;;17.70;99.90;;;;;;5012354;28;20226;-67
2023/06/26 04:00:08;;;;;;;1.25;0.75;;;17.90;99.90;;;;;;5012301;28;20203;-67
2023/06/26 04:02:34;;;;;;;1.20;1.05;;;18.10;99.90;;;;;;5012088;28;20637;-67
2023/06/26 04:05:00;;;;;;;0.52;0.52;;;18.10;99.90;;;;;;5012029;28;20636;-67
2023/06/26 04:07:26;;;;;;;1.00;0.90;;;18.00;99.90;;;;;;5012010;28;20203;-67
2023/06/26 04:09:52;;;;;;;0.65;0.63;;;18.00;99.90;;;;;;5012125;28;20195;-67
2023/06/26 04:12:18;;;;;;;0.65;0.65;;;17.90;99.90;;;;;;5012144;28;20195;-67
2023/06/26 04:14:44;;;;;;;0.85;0.75;;;17.90;99.90;;;;;;5012380;28;20209;-67
2023/06/26 04:17:10;;;;;;;1.10;0.63;;;17.80;99.90;;;;;;5012280;28;20198;-67
2023/06/26 04:19:36;;;;;;;0.45;0.45;;;17.80;99.90;;;;;;5012034;28;20215;-67
2023/06/26 04:22:02;;;;;;;0.82;0.50;;;17.90;99.90;;;;;;5012090;28;20210;-67
2023/06/26 04:24:28;;;;;;;0.65;0.65;;;18.20;99.90;;;;;;5011163;28;20199;-67
2023/06/26 04:26:56;;;;;;;0.50;0.50;;;18.40;99.90;;;;;;5012116;28;20191;-68
2023/06/26 04:29:26;;;;;;;0.30;0.30;;;18.50;99.90;;;;;;5011716;28;20268;-68
2023/06/26 04:31:57;;;;;;;0.50;0.50;;;18.60;99.90;;;;;;5012132;28;20708;-67
2023/06/26 04:34:27;;;;;;;0.93;0.90;;;18.70;99.90;;;;;;5011702;28;20306;-67
2023/06/26 04:36:53;;;;;;;0.70;0.70;;;18.60;99.90;;;;;;5016851;28;20232;-67
2023/06/26 04:39:19;;;;;;;0.73;0.73;;;18.70;99.90;;;;;;5031214;28;20221;-68
2023/06/26 04:41:45;;;;;;;0.82;0.73;;;18.90;99.90;;;;;;5016606;28;20238;-67
2023/06/26 04:44:11;;;;;;;1.38;1.10;;;18.90;99.90;;;;;;5010906;28;20198;-67
2023/06/26 04:46:41;;;;;;;2.05;0.63;;;18.90;99.90;;;;;;5010807;28;20249;-67
2023/06/26 04:49:08;;;;;;;1.00;1.00;;;18.80;99.90;;;;;;5011669;28;20174;-67
2023/06/26 04:51:38;;;;;;;0.40;0.40;;;18.80;99.90;;;;;;5011242;28;20856;-67
2023/06/26 04:54:03;;;;;;;0.98;0.90;;;18.90;99.90;;;;;;5011255;28;20229;-67
2023/06/26 04:56:30;;;;;;;0.98;0.82;;;18.90;99.90;;;;;;5011461;28;20198;-67
2023/06/26 04:58:56;;;;;;;31.02;1.25;;;18.90;99.90;;;;;;5011691;28;20198;-67
2023/06/26 05:01:22;;;;;;;1.02;0.95;;;18.80;99.90;;;;;;5011227;28;20229;-67
2023/06/26 05:03:47;;;;;;;0.73;0.73;;;18.90;99.90;;;;;;5010898;28;20222;-68
2023/06/26 05:06:13;;;;;;;0.30;0.30;;;19.00;99.90;;;;;;5011528;28;20283;-67
2023/06/26 05:08:39;;;;;;;0.50;0.50;;;19.00;99.90;;;;;;4993148;28;20296;-67
2023/06/26 05:11:05;;;;;;;1.02;0.98;;;19.10;99.90;;;;;;5011985;28;20201;-67
2023/06/26 05:13:31;;;;;;;0.50;0.50;;;19.20;99.90;;;;;;5011188;28;20191;-67
2023/06/26 05:15:56;;;;;;;0.38;0.38;;;19.40;99.90;;;;;;5010952;28;20210;-67
2023/06/26 05:18:22;;;;;;;0.50;0.50;;;19.60;99.90;;;;;;5011187;28;20194;-68
2023/06/26 05:20:48;;;;;;;3.33;0.55;;;19.70;99.90;;;;;;5011952;28;20198;-68
2023/06/26 05:23:16;;;;;;;0.70;0.70;;;19.80;99.90;;;;;;5011663;28;20277;-67
2023/06/26 05:25:42;;;;;;;0.63;0.60;;;19.90;99.90;;;;;;5011257;28;20643;-67
2023/06/26 05:28:10;;;;;;;0.80;0.80;;;20.10;99.90;;;;;;5011595;28;20199;-67
2023/06/26 05:30:36;;;;;;;0.63;0.63;;;20.30;99.90;;;;;;5011025;28;20289;-68
2023/06/26 05:33:03;;;;;;;0.80;0.80;;;20.50;99.90;;;;;;5011370;28;20261;-68
2023/06/26 05:35:30;;;;;;;0.52;0.52;;;20.50;99.90;;;;;;4993224;28;20896;-68
2023/06/26 05:37:58;;;;;;;1.60;0.77;;;20.50;99.90;;;;;;4993505;28;20214;-69
2023/06/26 05:40:24;;;;;;;3.30;1.23;;;20.80;99.90;;;;;;4993453;28;20245;-68
2023/06/26 05:42:50;;;;;;;1.17;0.57;;;21.00;99.90;;;;;;5009688;28;20274;-68
2023/06/26 05:45:16;;;;;;;0.60;0.60;;;21.10;99.90;;;;;;5011020;28;20256;-68
2023/06/26 05:47:42;;;;;;;0.40;0.32;;;21.10;99.90;;;;;;5010460;28;20198;-68
2023/06/26 05:50:09;;;;;;;0.52;0.52;;;21.20;99.90;;;;;;5010493;28;20199;-67
2023/06/26 05:52:35;;;;;;;0.90;0.90;;;21.40;99.90;;;;;;5011037;28;20190;-67
2023/06/26 05:55:02;;;;;;;0.30;0.30;;;21.60;99.90;;;;;;5010948;28;20229;-68
2023/06/26 05:57:29;;;;;;;0.50;0.50;;;21.60;99.90;;;;;;5010956;28;20210;-68
2023/06/26 05:59:56;;;;;;;1.13;0.75;;;21.70;99.90;;;;;;5010979;28;20231;-68
2023/06/26 06:02:22;;;;;;;0.40;0.40;;;21.70;99.90;;;;;;5010922;28;20876;-67
2023/06/26 06:04:50;;;;;;;0.73;0.73;;;21.60;99.90;;;;;;5010782;28;20764;-68
2023/06/26 06:07:16;;;;;;;1.20;1.08;;;21.80;99.90;;;;;;5011083;28;20195;-68
2023/06/26 06:09:42;;;;;;;0.40;0.40;;;21.80;99.90;;;;;;5011118;28;20673;-69
2023/06/26 06:12:08;;;;;;;0.40;0.40;;;21.80;99.90;;;;;;5010892;28;20206;-69
2023/06/26 06:14:34;;;;;;;0.93;0.65;;;22.10;99.90;;;;;;5012204;28;20703;-68
2023/06/26 06:17:01;;;;;;;0.52;0.52;;;22.30;99.90;;;;;;5013698;28;20203;-68
2023/06/26 06:19:27;;;;;;;2.20;0.57;;;22.40;99.90;;;;;;5014471;28;20238;-67
2023/06/26 06:21:53;;;;;;;0.50;0.50;;;22.50;99.90;;;;;;5014441;28;20283;-68
2023/06/26 06:24:19;;;;;;;0.75;0.50;;;22.60;99.90;;;;;;5014145;28;20202;-67
2023/06/26 06:26:45;;;;;;;0.80;0.80;;;22.70;99.90;;;;;;5014297;28;20252;-68
2023/06/26 06:29:10;;;;;;;1.25;0.75;;;22.90;99.90;;;;;;5012209;28;20678;-68
2023/06/26 06:31:36;;;;;;;0.60;0.60;;;22.90;99.90;;;;;;5014389;28;20191;-69
2023/06/26 06:34:02;;;;;;;5.47;1.60;;;23.00;99.90;;;;;;4996096;28;20229;-69
2023/06/26 06:36:28;;;;;;;1.88;0.95;;;23.00;99.90;;;;;;5015511;28;20235;-68
2023/06/26 06:38:54;;;;;;;0.68;0.63;;;23.10;99.90;;;;;;5034095;28;20198;-69
2023/06/26 06:41:20;;;;;;;3.15;1.13;;;23.30;99.90;;;;;;5033563;28;20230;-69
2023/06/26 06:43:46;;;;;;;0.60;0.60;;;23.40;99.90;;;;;;5033728;28;20281;-69
2023/06/26 06:46:12;;;;;;;0.40;0.40;;;23.60;99.90;;;;;;5033542;28;20289;-69
2023/06/26 06:48:38;;;;;;;0.63;0.63;;;23.80;99.90;;;;;;5033112;28;20194;-69
2023/06/26 06:51:03;;;;;;;1.75;0.88;;;23.90;99.90;;;;;;5033596;28;20193;-69
2023/06/26 06:53:30;;;;;;;2.78;1.38;;;24.20;99.90;;;;;;5033074;28;20186;-69
2023/06/26 06:55:55;;;;;;;1.23;1.10;;;24.20;99.90;;;;;;5026237;28;20587;-69
2023/06/26 06:58:22;;;;;;;0.88;0.70;;;24.50;99.90;;;;;;5013212;28;20221;-70
2023/06/26 07:00:48;;;;;;;0.30;0.30;;;24.60;99.90;;;;;;5013617;28;20227;-70
2023/06/26 07:03:14;;;;;;;0.30;0.30;;;24.70;99.90;;;;;;4995515;28;20237;-69
2023/06/26 07:05:42;;;;;;;0.88;0.50;;;25.00;99.90;;;;;;5011983;28;20214;-69
2023/06/26 07:08:08;;;;;;;0.32;0.32;;;25.10;99.90;;;;;;4995251;28;20187;-70
2023/06/26 07:10:34;;;;;;;0.68;0.68;;;25.10;99.90;;;;;;5012178;28;20654;-70
2023/06/26 07:13:00;;;;;;;0.70;0.70;;;25.10;99.90;;;;;;5013339;28;20194;-70
2023/06/26 07:15:26;;;;;;;0.55;0.50;;;25.30;99.90;;;;;;5013280;28;20203;-70
2023/06/26 07:17:51;;;;;;;0.43;0.43;;;25.50;99.90;;;;;;5012180;28;20739;-69
2023/06/26 07:20:18;;;;;;;0.30;0.30;;;25.70;99.90;;;;;;5012910;28;20198;-70
2023/06/26 07:22:47;;;;;;;0.40;0.40;;;25.70;99.90;;;;;;5012963;28;20194;-70
2023/06/26 07:25:13;;;;;;;2.08;1.05;;;26.00;99.90;;;;;;5012399;28;20213;-69
2023/06/26 07:27:40;;;;;;;0.40;0.40;;;26.20;99.90;;;;;;5013019;28;20293;-69
2023/06/26 07:30:10;;;;;;;0.38;0.38;;;26.40;99.90;;;;;;4995485;28;20536;-69
2023/06/26 07:32:37;;;;;;;0.63;0.50;;;26.70;99.90;;;;;;5012984;28;20183;-68
2023/06/26 07:35:03;;;;;;;0.80;0.60;;;26.80;99.90;;;;;;5012878;28;20190;-68
2023/06/26 07:37:29;;;;;;;1.17;0.57;;;26.80;99.90;;;;;;5022565;28;20285;-68
2023/06/26 07:39:54;;;;;;;1.42;0.88;;;27.00;99.90;;;;;;5031363;28;20748;-68
2023/06/26 07:42:20;;;;;;;1.15;0.82;;;27.10;99.90;;;;;;5014320;28;20712;-69
2023/06/26 07:44:46;;;;;;;0.43;0.43;;;27.20;99.90;;;;;;5032541;28;20542;-68
2023/06/26 07:47:12;;;;;;;1.02;0.65;;;27.30;99.90;;;;;;5032665;28;20198;-70
2023/06/26 07:49:39;;;;;;;0.40;0.40;;;27.40;99.90;;;;;;5015165;28;20256;-70
2023/06/26 07:52:06;;;;;;;2.45;0.88;;;27.20;99.90;;;;;;5012628;28;20563;-69
2023/06/26 07:54:32;;;;;;;1.40;0.65;;;27.40;99.90;;;;;;5012462;28;20585;-70
2023/06/26 07:57:02;;;;;;;0.40;0.40;;;27.30;99.90;;;;;;5012616;28;20556;-70
2023/06/26 07:59:29;;;;;;;1.13;0.82;;;27.40;99.90;;;;;;5012374;28;20264;-69
2023/06/26 08:01:56;;;;;;;0.35;0.35;;;27.60;99.90;;;;;;5012586;28;20194;-69
2023/06/26 08:04:24;;;;;;;0.25;0.25;;;27.80;99.90;;;;;;5011700;28;20573;-69
2023/06/26 08:06:52;;;;;;;0.60;0.55;;;27.80;99.90;;;;;;5012565;28;20183;-69
2023/06/26 08:09:19;;;;;;;0.43;0.43;;;28.00;99.90;;;;;;5012272;28;20187;-69
2023/06/26 08:11:45;;;;;;;0.68;0.60;;;28.00;99.90;;;;;;5012388;28;20276;-69
2023/06/26 08:14:15;;;;;;;2.92;1.55;;;28.40;99.90;;;;;;5012214;28;20194;-69
2023/06/26 08:16:43;;;;;;;1.02;0.93;;;28.60;99.90;;;;;;5012282;28;20209;-69
2023/06/26 08:19:10;;;;;;;0.28;0.28;;;28.80;99.90;;;;;;5012114;28;20190;-70
2023/06/26 08:21:35;;;;;;;0.47;0.47;;;29.10;98.40;;;;;;5012182;28;20206;-70
2023/06/26 08:24:02;;;;;;;0.73;0.52;;;29.30;99.30;;;;;;5012153;28;20273;-69
2023/06/26 08:26:28;;;;;;;0.85;0.50;;;29.20;99.70;;;;;;5010200;28;20247;-69
2023/06/26 08:28:57;;;;;;;0.40;0.40;;;29.10;99.90;;;;;;4994441;28;20190;-69
2023/06/26 08:31:23;;;;;;;0.40;0.40;;;28.90;99.80;;;;;;5011867;28;20704;-70
2023/06/26 08:33:48;;;;;;;0.75;0.75;;;29.20;99.90;;;;;;5011335;28;20269;-69
2023/06/26 08:36:14;;;;;;;0.68;0.30;;;29.20;98.90;;;;;;5011740;28;20623;-70
2023/06/26 08:38:40;;;;;;;0.50;0.50;;;29.20;98.60;;;;;;5030901;28;20225;-69
2023/06/26 08:41:07;;;;;;;0.50;0.45;;;29.30;98.90;;;;;;5031711;28;20198;-70
2023/06/26 08:43:33;;;;;;;1.15;0.75;;;29.60;98.40;;;;;;5031383;28;20296;-70
2023/06/26 08:46:00;;;;;;;1.15;0.50;;;29.70;96.40;;;;;;5031513;28;20248;-70
2023/06/26 08:48:26;;;;;;;0.95;0.68;;;29.70;98.10;;;;;;5024394;28;20662;-70
2023/06/26 08:50:58;;;;;;;0.40;0.40;;;29.70;98.00;;;;;;5011756;28;20555;-70
2023/06/26 08:53:34;;;;;;;0.40;0.30;;;30.00;96.90;;;;;;4993816;28;20198;-70
2023/06/26 08:56:00;;;;;;;0.28;0.28;;;29.90;97.00;;;;;;5011405;28;20194;-70
2023/06/26 08:58:27;;;;;;;0.73;0.40;;;29.90;97.50;;;;;;5011481;28;20190;-71
2023/06/26 09:00:53;;;;;;;1.40;0.60;;;29.50;93.80;;;;;;5011489;28;20198;-70
2023/06/26 09:03:19;;;;;;;1.65;0.20;;;29.70;94.60;;;;;;5011081;28;20484;-70
2023/06/26 09:05:45;;;;;;;0.30;0.30;;;29.90;95.30;;;;;;5010090;28;20615;-70
2023/06/26 09:08:13;;;;;;;0.45;0.43;;;30.10;95.00;;;;;;5011300;28;20265;-70
2023/06/26 09:10:39;;;;;;;0.40;0.40;;;30.40;95.30;;;;;;5011036;28;20205;-70
2023/06/26 09:13:08;;;;;;;0.75;0.60;;;30.60;93.30;;;;;;5009882;28;20256;-70
2023/06/26 09:15:41;;;;;;;0.40;0.38;;;30.00;93.10;;;;;;4993562;28;20198;-70
2023/06/26 09:18:07;;;;;;;0.63;0.35;;;30.00;93.50;;;;;;5011209;28;20190;-70
2023/06/26 09:20:34;;;;;;;0.82;0.70;;;30.30;93.20;;;;;;5011105;28;20248;-71
2023/06/26 09:23:00;;;;;;;1.42;0.93;;;30.60;93.20;;;;;;5011393;28;20661;-70
2023/06/26 09:25:27;;;;;;;0.60;0.60;;;31.00;91.10;;;;;;5011073;28;20681;-70
2023/06/26 09:27:54;;;;;;;0.65;0.47;;;30.90;91.40;;;;;;5011283;28;20187;-71
2023/06/26 09:30:20;;;;;;;0.50;0.50;;;30.90;91.90;;;;;;5011217;28;20771;-70
2023/06/26 09:32:46;;;;;;;0.90;0.68;;;30.90;91.60;;;;;;5011452;28;20269;-70
2023/06/26 09:35:12;;;;;;;0.68;0.65;;;30.90;91.20;;;;;;5011019;28;20198;-70
2023/06/26 09:37:41;;;;;;;0.32;0.32;;;31.00;92.00;;;;;;5022035;28;20202;-70
2023/06/26 09:40:08;;;;;;;0.65;0.57;;;30.70;93.80;;;;;;5029541;28;20202;-69
2023/06/26 09:42:34;;;;;;;0.85;0.38;;;31.10;91.50;;;;;;5030843;28;20280;-70
2023/06/26 09:44:59;;;;;;;0.30;0.30;;;31.30;91.90;;;;;;5030781;28;20292;-69
2023/06/26 09:47:25;;;;;;;0.50;0.50;;;31.60;93.20;;;;;;5030566;28;20660;-69
2023/06/26 09:49:52;;;;;;;0.22;0.22;;;31.90;91.60;;;;;;5014637;28;20567;-70
2023/06/26 09:52:21;;;;;;;1.27;0.82;;;31.80;90.00;;;;;;5014387;28;20186;-70
2023/06/26 09:54:47;;;;;;;0.52;0.52;;;31.90;90.00;;;;;;5015106;28;20194;-72
2023/06/26 09:57:15;;;;;;;1.98;0.60;;;31.80;88.00;;;;;;5014809;28;20206;-71
2023/06/26 09:59:42;;;;;;;0.55;0.50;;;32.10;90.60;;;;;;5014203;28;20724;-71
2023/06/26 10:02:08;;;;;;;1.05;0.43;;;32.10;87.80;;;;;;4996776;28;20677;-72
2023/06/26 10:04:35;;;;;;;0.82;0.52;;;32.20;86.10;;;;;;5014335;28;20264;-72
2023/06/26 10:07:06;;;;;;;0.82;0.57;;;32.20;88.20;;;;;;5014743;28;20210;-72
2023/06/26 10:09:32;;;;;;;0.75;0.60;;;32.10;83.70;;;;;;5014452;28;20186;-72
2023/06/26 10:12:05;;;;;;;0.52;0.35;;;31.70;83.80;;;;;;5014533;28;20210;-71
2023/06/26 10:14:36;;;;;;;0.75;0.68;;;31.90;85.60;;;;;;5014344;28;20190;-71
2023/06/26 10:17:06;;;;;;;0.52;0.52;;;32.20;88.50;;;;;;5014361;28;20202;-72
2023/06/26 10:19:37;;;;;;;0.55;0.35;;;32.50;85.50;;;;;;5014171;28;20198;-71
2023/06/26 10:22:04;;;;;;;0.85;0.50;;;32.10;83.20;;;;;;5014303;28;20187;-72
2023/06/26 10:24:34;;;;;;;0.35;0.35;;;31.70;85.10;;;;;;5014220;28;20673;-72
2023/06/26 10:27:16;;;;;;;0.43;0.32;;;31.50;87.70;;;;;;5014372;28;20195;-71
2023/06/26 10:29:46;;;;;;;0.63;0.63;;;32.00;86.40;;;;;;5014204;28;20713;-72
2023/06/26 10:32:13;;;;;;;0.98;0.65;;;32.40;86.30;;;;;;5014193;28;20274;-72
2023/06/26 10:34:39;;;;;;;0.57;0.45;;;32.80;83.10;;;;;;5014134;28;20197;-72
2023/06/26 10:37:04;;;;;;;0.40;0.40;;;33.20;83.40;;;;;;5002619;28;20198;-71
2023/06/26 10:39:49;;;;;;;1.35;1.05;;;33.30;80.00;;;;;;5033676;28;20193;-72
2023/06/26 10:42:17;;;;;;;0.50;0.45;;;33.10;83.00;;;;;;5033758;28;20193;-71
2023/06/26 10:44:47;;;;;;;0.70;0.52;;;33.20;81.60;;;;;;5033581;28;20251;-71
2023/06/26 10:47:35;;;;;;;0.30;0.30;;;31.80;83.70;;;;;;5016026;28;20236;-71
2023/06/26 10:50:20;;;;;;;0.38;0.38;;;31.90;83.30;;;;;;4993506;28;20286;-72
2023/06/26 10:53:09;;;;;;;1.02;0.77;;;32.30;86.40;;;;;;5005012;28;20224;-73
2023/06/26 10:55:44;;;;;;;0.40;0.40;;;32.80;87.30;;;;;;5013664;28;20752;-72
2023/06/26 10:58:32;;;;;;;0.30;0.30;;;33.10;84.10;;;;;;5013795;28;20182;-70
2023/06/26 11:01:15;;;;;;;0.93;0.52;;;32.70;81.20;;;;;;5013262;28;20672;-71
2023/06/26 11:03:47;;;;;;;0.95;0.55;;;32.80;81.80;;;;;;5013349;28;20238;-72
2023/06/26 11:06:14;;;;;;;0.30;0.30;;;32.80;77.90;;;;;;5013507;28;20217;-72
2023/06/26 11:08:46;;;;;;;0.65;0.32;;;32.60;77.90;;;;;;5013373;28;20205;-72
2023/06/26 11:11:12;;;;;;;0.85;0.40;;;33.30;77.80;;;;;;4996134;28;20245;-71
2023/06/26 11:13:42;;;;;;;1.75;0.40;;;33.30;77.60;;;;;;5013284;28;20566;-72
2023/06/26 11:16:08;;;;;;;1.05;0.50;;;32.60;74.70;;;;;;4995421;28;20324;-72
2023/06/26 11:18:34;;;;;;;0.28;0.25;;;32.50;75.00;;;;;;5013349;28;20210;-71
2023/06/26 11:21:11;;;;;;;4.07;0.68;;;32.30;75.90;;;;;;5013234;28;20210;-71
2023/06/26 11:23:38;;;;;;;0.38;0.38;;;32.80;75.70;;;;;;5013134;28;20605;-70
2023/06/26 11:26:17;;;;;;;0.63;0.60;;;33.00;75.50;;;;;;5013008;28;20720;-71
2023/06/26 11:28:48;;;;;;;0.30;0.30;;;32.80;73.40;;;;;;5013117;28;20752;-71
2023/06/26 11:31:30;;;;;;;1.83;0.98;;;32.20;71.40;;;;;;4995624;28;20206;-71
2023/06/26 11:34:02;;;;;;;1.20;1.00;;;32.80;74.00;;;;;;5013168;28;20183;-72
2023/06/26 11:36:29;;;;;;;0.47;0.30;;;32.30;72.20;;;;;;5014237;28;20304;-72
2023/06/26 11:39:03;;;;;;;0.80;0.50;;;32.60;72.40;;;;;;5014680;28;20257;-71
2023/06/26 11:41:31;;;;;;;0.47;0.47;;;33.30;73.70;;;;;;5014671;28;20435;-71
2023/06/26 11:44:01;;;;;;;0.13;0.13;;;32.80;69.90;;;;;;5031799;28;20701;-71
2023/06/26 11:46:28;;;;;;;0.10;0.10;;;32.90;68.50;;;;;;4994581;28;20321;-72
2023/06/26 11:48:54;;;;;;;0.47;0.40;;;33.20;71.40;;;;;;4994412;28;20260;-71
2023/06/26 11:51:20;;;;;;;0.22;0.22;;;32.90;72.30;;;;;;5012320;28;20573;-71
2023/06/26 11:53:47;;;;;;;0.75;0.43;;;33.80;73.20;;;;;;5012335;28;20275;-72
2023/06/26 11:56:17;;;;;;;1.80;0.82;;;34.20;71.80;;;;;;5012240;28;20190;-71
2023/06/26 11:59:03;;;;;;;0.35;0.30;;;34.40;72.10;;;;;;4994734;28;20198;-72
2023/06/26 12:01:37;;;;;;;0.20;0.20;;;34.00;70.50;;;;;;5012675;28;20218;-70
2023/06/26 12:04:06;;;;;;;0.85;0.73;;;34.10;73.60;;;;;;5012628;28;20221;-70
2023/06/26 12:06:39;;;;;;;1.90;0.82;;;33.80;72.70;;;;;;4994614;28;20218;-70
2023/06/26 12:09:11;;;;;;;2.15;1.08;;;33.60;72.20;;;;;;5012400;28;20256;-70
2023/06/26 12:11:40;;;;;;;0.30;0.30;;;33.40;71.40;;;;;;5011226;28;20202;-70
2023/06/26 12:14:07;;;;;;;0.38;0.38;;;33.90;73.90;;;;;;5012340;28;20195;-70
2023/06/26 12:16:34;;;;;;;0.30;0.30;;;33.50;72.30;;;;;;5012192;28;20198;-70
2023/06/26 12:19:04;;;;;;;0.82;0.70;;;33.30;72.10;;;;;;5012233;28;20632;-68
2023/06/26 12:21:43;;;;;;;0.73;0.50;;;33.10;72.00;;;;;;5013255;28;20605;-69
2023/06/26 12:24:13;;;;;;;1.05;0.57;;;33.10;73.70;;;;;;5012839;28;20206;-70
2023/06/26 12:26:43;;;;;;;0.90;0.68;;;33.10;72.50;;;;;;4994264;28;20600;-70
2023/06/26 12:29:17;;;;;;;0.45;0.35;;;32.60;71.40;;;;;;4993509;28;20384;-71
2023/06/26 12:31:52;;;;;;;0.40;0.40;;;32.60;71.50;;;;;;5011669;28;20201;-71
2023/06/26 12:34:21;;;;;;;1.48;0.77;;;32.20;73.50;;;;;;5011761;28;20198;-71
2023/06/26 12:36:51;;;;;;;1.88;0.80;;;32.30;71.70;;;;;;5015679;28;20652;-70
2023/06/26 12:39:19;;;;;;;0.55;0.50;;;32.80;72.50;;;;;;5014168;28;20688;-71
2023/06/26 12:41:56;;;;;;;0.45;0.45;;;33.00;71.30;;;;;;5000758;28;20206;-70
2023/06/26 12:44:26;;;;;;;0.73;0.73;;;32.80;71.10;;;;;;5011058;28;20225;-71
2023/06/26 12:46:58;;;;;;;0.30;0.30;;;32.80;72.00;;;;;;5011890;28;20281;-71
2023/06/26 12:49:35;;;;;;;0.65;0.57;;;33.10;70.50;;;;;;4993739;28;20690;-71
2023/06/26 12:52:06;;;;;;;1.42;0.88;;;33.40;71.00;;;;;;5011981;28;20188;-72
2023/06/26 12:54:47;;;;;;;0.63;0.30;;;33.40;70.30;;;;;;5011525;28;20680;-72